sensor_id;sensor_type;location;lat;lon;timestamp;P1;durP1;ratioP1;P2;durP2;ratioP2
69392;SDS011;56582;44.624;20.378;2023-08-31T00:01:11;11.60;;;8.20;;
69392;SDS011;56582;44.624;20.378;2023-08-31T00:03:36;12.57;;;8.52;;
69392;SDS011;56582;44.624;20.378;2023-08-31T00:06:02;11.90;;;8.63;;
69392;SDS011;56582;44.624;20.378;2023-08-31T00:08:32;10.75;;;7.43;;
69392;SDS011;56582;44.624;20.378;2023-08-31T00:10:59;13.10;;;8.90;;
69392;SDS011;56582;44.624;20.378;2023-08-31T00:13:25;10.93;;;7.85;;
69392;SDS011;56582;44.624;20.378;2023-08-31T00:15:53;10.93;;;8.02;;
69392;SDS011;56582;44.624;20.378;2023-08-31T00:18:22;11.37;;;8.10;;
69392;SDS011;56582;44.624;20.378;2023-08-31T00:20:49;10.57;;;7.50;;
69392;SDS011;56582;44.624;20.378;2023-08-31T00:23:15;11.77;;;8.15;;
69392;SDS011;56582;44.624;20.378;2023-08-31T00:25:40;9.80;;;7.03;;
69392;SDS011;56582;44.624;20.378;2023-08-31T00:28:08;10.88;;;7.32;;
69392;SDS011;56582;44.624;20.378;2023-08-31T00:30:34;11.13;;;6.97;;
69392;SDS011;56582;44.624;20.378;2023-08-31T00:33:00;9.85;;;6.43;;
69392;SDS011;56582;44.624;20.378;2023-08-31T00:35:26;9.43;;;6.30;;
69392;SDS011;56582;44.624;20.378;2023-08-31T00:37:52;8.88;;;6.68;;
69392;SDS011;56582;44.624;20.378;2023-08-31T00:40:23;10.55;;;7.18;;
69392;SDS011;56582;44.624;20.378;2023-08-31T00:42:49;9.37;;;6.53;;
69392;SDS011;56582;44.624;20.378;2023-08-31T00:45:14;9.90;;;7.20;;
69392;SDS011;56582;44.624;20.378;2023-08-31T00:47:40;12.95;;;7.05;;
69392;SDS011;56582;44.624;20.378;2023-08-31T00:50:07;10.38;;;7.40;;
69392;SDS011;56582;44.624;20.378;2023-08-31T00:52:33;9.93;;;7.07;;
69392;SDS011;56582;44.624;20.378;2023-08-31T00:54:59;9.80;;;7.07;;
69392;SDS011;56582;44.624;20.378;2023-08-31T00:57:30;10.25;;;6.65;;
69392;SDS011;56582;44.624;20.378;2023-08-31T00:59:55;9.37;;;6.83;;
69392;SDS011;56582;44.624;20.378;2023-08-31T01:10:55;9.60;;;6.32;;
69392;SDS011;56582;44.624;20.378;2023-08-31T01:13:28;10.23;;;6.90;;
69392;SDS011;56582;44.624;20.378;2023-08-31T01:15:59;10.65;;;6.60;;
69392;SDS011;56582;44.624;20.378;2023-08-31T01:18:28;9.48;;;7.20;;
69392;SDS011;56582;44.624;20.378;2023-08-31T01:23:59;12.60;;;6.00;;
69392;SDS011;56582;44.624;20.378;2023-08-31T01:26:24;8.95;;;6.35;;
69392;SDS011;56582;44.624;20.378;2023-08-31T01:28:51;9.37;;;6.63;;
69392;SDS011;56582;44.624;20.378;2023-08-31T01:31:17;8.83;;;6.40;;
69392;SDS011;56582;44.624;20.378;2023-08-31T01:33:43;8.65;;;6.13;;
69392;SDS011;56582;44.624;20.378;2023-08-31T01:36:12;9.67;;;6.17;;
69392;SDS011;56582;44.624;20.378;2023-08-31T01:38:43;9.90;;;6.72;;
69392;SDS011;56582;44.624;20.378;2023-08-31T01:41:13;10.85;;;6.53;;
69392;SDS011;56582;44.624;20.378;2023-08-31T01:43:43;10.63;;;7.13;;
69392;SDS011;56582;44.624;20.378;2023-08-31T01:46:09;9.63;;;6.32;;
69392;SDS011;56582;44.624;20.378;2023-08-31T01:48:41;10.07;;;6.27;;
69392;SDS011;56582;44.624;20.378;2023-08-31T01:51:07;12.02;;;6.30;;
69392;SDS011;56582;44.624;20.378;2023-08-31T01:53:34;9.68;;;6.85;;
69392;SDS011;56582;44.624;20.378;2023-08-31T01:55:59;9.65;;;6.05;;
69392;SDS011;56582;44.624;20.378;2023-08-31T01:58:25;9.67;;;6.00;;
69392;SDS011;56582;44.624;20.378;2023-08-31T02:00:50;9.67;;;6.80;;
69392;SDS011;56582;44.624;20.378;2023-08-31T02:03:15;10.07;;;7.13;;
69392;SDS011;56582;44.624;20.378;2023-08-31T02:05:41;9.77;;;6.03;;
69392;SDS011;56582;44.624;20.378;2023-08-31T02:08:06;8.37;;;5.93;;
69392;SDS011;56582;44.624;20.378;2023-08-31T02:10:32;9.83;;;6.80;;
69392;SDS011;56582;44.624;20.378;2023-08-31T02:12:57;8.73;;;6.20;;
69392;SDS011;56582;44.624;20.378;2023-08-31T02:15:24;9.43;;;6.40;;
69392;SDS011;56582;44.624;20.378;2023-08-31T02:17:49;8.80;;;6.63;;
69392;SDS011;56582;44.624;20.378;2023-08-31T02:20:14;11.10;;;6.97;;
69392;SDS011;56582;44.624;20.378;2023-08-31T02:22:40;8.00;;;5.50;;
69392;SDS011;56582;44.624;20.378;2023-08-31T02:25:06;9.40;;;6.10;;
69392;SDS011;56582;44.624;20.378;2023-08-31T02:27:31;10.50;;;6.07;;
69392;SDS011;56582;44.624;20.378;2023-08-31T02:29:57;7.57;;;5.57;;
69392;SDS011;56582;44.624;20.378;2023-08-31T02:32:22;10.45;;;5.97;;
69392;SDS011;56582;44.624;20.378;2023-08-31T02:34:48;8.80;;;6.00;;
69392;SDS011;56582;44.624;20.378;2023-08-31T02:37:14;9.35;;;6.57;;
69392;SDS011;56582;44.624;20.378;2023-08-31T02:39:39;9.03;;;5.90;;
69392;SDS011;56582;44.624;20.378;2023-08-31T02:42:05;8.80;;;5.97;;
69392;SDS011;56582;44.624;20.378;2023-08-31T02:44:31;8.32;;;5.78;;
69392;SDS011;56582;44.624;20.378;2023-08-31T02:46:57;9.35;;;7.03;;
69392;SDS011;56582;44.624;20.378;2023-08-31T02:49:22;8.57;;;5.77;;
69392;SDS011;56582;44.624;20.378;2023-08-31T02:51:48;9.40;;;7.07;;
69392;SDS011;56582;44.624;20.378;2023-08-31T02:54:14;10.95;;;7.10;;
69392;SDS011;56582;44.624;20.378;2023-08-31T02:56:40;11.13;;;7.53;;
69392;SDS011;56582;44.624;20.378;2023-08-31T02:59:05;12.38;;;7.00;;
69392;SDS011;56582;44.624;20.378;2023-08-31T03:01:31;11.40;;;7.23;;
69392;SDS011;56582;44.624;20.378;2023-08-31T03:03:56;9.53;;;6.70;;
69392;SDS011;56582;44.624;20.378;2023-08-31T03:06:22;9.18;;;7.03;;
69392;SDS011;56582;44.624;20.378;2023-08-31T03:08:47;10.00;;;6.53;;
69392;SDS011;56582;44.624;20.378;2023-08-31T03:11:13;7.67;;;5.63;;
69392;SDS011;56582;44.624;20.378;2023-08-31T03:13:41;9.77;;;6.35;;
69392;SDS011;56582;44.624;20.378;2023-08-31T03:16:07;9.27;;;6.45;;
69392;SDS011;56582;44.624;20.378;2023-08-31T03:18:32;9.50;;;7.13;;
69392;SDS011;56582;44.624;20.378;2023-08-31T03:20:58;9.90;;;6.57;;
69392;SDS011;56582;44.624;20.378;2023-08-31T03:23:24;9.95;;;6.45;;
69392;SDS011;56582;44.624;20.378;2023-08-31T03:25:50;10.45;;;6.68;;
69392;SDS011;56582;44.624;20.378;2023-08-31T03:28:15;9.87;;;6.60;;
69392;SDS011;56582;44.624;20.378;2023-08-31T03:30:41;9.23;;;6.50;;
69392;SDS011;56582;44.624;20.378;2023-08-31T03:33:06;10.40;;;7.70;;
69392;SDS011;56582;44.624;20.378;2023-08-31T03:35:32;10.80;;;6.90;;
69392;SDS011;56582;44.624;20.378;2023-08-31T03:37:58;11.23;;;7.07;;
69392;SDS011;56582;44.624;20.378;2023-08-31T03:40:23;11.33;;;6.83;;
69392;SDS011;56582;44.624;20.378;2023-08-31T03:42:52;9.37;;;6.13;;
69392;SDS011;56582;44.624;20.378;2023-08-31T03:45:19;9.63;;;5.90;;
69392;SDS011;56582;44.624;20.378;2023-08-31T03:47:45;9.50;;;6.47;;
69392;SDS011;56582;44.624;20.378;2023-08-31T03:50:13;10.50;;;6.88;;
69392;SDS011;56582;44.624;20.378;2023-08-31T03:52:39;10.57;;;7.67;;
69392;SDS011;56582;44.624;20.378;2023-08-31T03:55:04;9.47;;;7.30;;
69392;SDS011;56582;44.624;20.378;2023-08-31T03:57:30;9.20;;;6.72;;
69392;SDS011;56582;44.624;20.378;2023-08-31T03:59:55;11.93;;;7.73;;
69392;SDS011;56582;44.624;20.378;2023-08-31T04:02:21;9.57;;;7.00;;
69392;SDS011;56582;44.624;20.378;2023-08-31T04:04:48;9.50;;;7.32;;
69392;SDS011;56582;44.624;20.378;2023-08-31T04:07:19;10.77;;;6.60;;
69392;SDS011;56582;44.624;20.378;2023-08-31T04:09:45;10.90;;;7.27;;
69392;SDS011;56582;44.624;20.378;2023-08-31T04:12:11;9.45;;;5.95;;
69392;SDS011;56582;44.624;20.378;2023-08-31T04:14:36;11.70;;;6.67;;
69392;SDS011;56582;44.624;20.378;2023-08-31T04:17:02;9.60;;;6.50;;
69392;SDS011;56582;44.624;20.378;2023-08-31T04:19:30;11.05;;;7.43;;
69392;SDS011;56582;44.624;20.378;2023-08-31T04:21:55;12.10;;;7.67;;
69392;SDS011;56582;44.624;20.378;2023-08-31T04:24:20;9.93;;;7.18;;
69392;SDS011;56582;44.624;20.378;2023-08-31T04:26:46;11.37;;;7.93;;
69392;SDS011;56582;44.624;20.378;2023-08-31T04:29:14;10.60;;;8.50;;
69392;SDS011;56582;44.624;20.378;2023-08-31T04:31:39;13.20;;;7.77;;
69392;SDS011;56582;44.624;20.378;2023-08-31T04:34:05;11.60;;;8.33;;
69392;SDS011;56582;44.624;20.378;2023-08-31T04:36:30;11.27;;;8.50;;
69392;SDS011;56582;44.624;20.378;2023-08-31T04:38:56;15.20;;;8.40;;
69392;SDS011;56582;44.624;20.378;2023-08-31T04:41:21;14.30;;;10.10;;
69392;SDS011;56582;44.624;20.378;2023-08-31T04:43:46;12.90;;;9.30;;
69392;SDS011;56582;44.624;20.378;2023-08-31T04:46:15;12.63;;;8.73;;
69392;SDS011;56582;44.624;20.378;2023-08-31T04:48:40;14.07;;;9.10;;
69392;SDS011;56582;44.624;20.378;2023-08-31T04:51:06;14.60;;;10.00;;
69392;SDS011;56582;44.624;20.378;2023-08-31T04:53:34;18.43;;;15.17;;
69392;SDS011;56582;44.624;20.378;2023-08-31T04:56:00;13.63;;;9.70;;
69392;SDS011;56582;44.624;20.378;2023-08-31T04:58:25;12.23;;;9.07;;
69392;SDS011;56582;44.624;20.378;2023-08-31T05:00:51;13.80;;;9.87;;
69392;SDS011;56582;44.624;20.378;2023-08-31T05:03:21;13.98;;;9.40;;
69392;SDS011;56582;44.624;20.378;2023-08-31T05:05:50;13.27;;;8.53;;
69392;SDS011;56582;44.624;20.378;2023-08-31T05:08:15;13.23;;;8.77;;
69392;SDS011;56582;44.624;20.378;2023-08-31T05:10:41;11.93;;;8.77;;
69392;SDS011;56582;44.624;20.378;2023-08-31T05:13:06;12.83;;;8.63;;
69392;SDS011;56582;44.624;20.378;2023-08-31T05:15:31;14.33;;;9.10;;
69392;SDS011;56582;44.624;20.378;2023-08-31T05:17:58;13.45;;;9.35;;
69392;SDS011;56582;44.624;20.378;2023-08-31T05:20:24;12.40;;;9.23;;
69392;SDS011;56582;44.624;20.378;2023-08-31T05:22:49;13.50;;;9.60;;
69392;SDS011;56582;44.624;20.378;2023-08-31T05:25:15;10.27;;;8.17;;
69392;SDS011;56582;44.624;20.378;2023-08-31T05:27:40;13.17;;;8.40;;
69392;SDS011;56582;44.624;20.378;2023-08-31T05:30:06;12.75;;;10.00;;
69392;SDS011;56582;44.624;20.378;2023-08-31T05:32:32;11.50;;;8.60;;
69392;SDS011;56582;44.624;20.378;2023-08-31T05:34:59;11.23;;;7.50;;
69392;SDS011;56582;44.624;20.378;2023-08-31T05:37:24;7.85;;;6.20;;
69392;SDS011;56582;44.624;20.378;2023-08-31T05:39:50;8.47;;;6.57;;
69392;SDS011;56582;44.624;20.378;2023-08-31T05:42:16;8.02;;;5.88;;
69392;SDS011;56582;44.624;20.378;2023-08-31T05:44:41;10.60;;;7.60;;
69392;SDS011;56582;44.624;20.378;2023-08-31T05:47:07;11.87;;;7.30;;
69392;SDS011;56582;44.624;20.378;2023-08-31T05:49:35;10.27;;;7.07;;
69392;SDS011;56582;44.624;20.378;2023-08-31T05:52:00;9.05;;;7.30;;
69392;SDS011;56582;44.624;20.378;2023-08-31T05:54:26;11.43;;;6.97;;
69392;SDS011;56582;44.624;20.378;2023-08-31T05:56:52;9.18;;;6.15;;
69392;SDS011;56582;44.624;20.378;2023-08-31T05:59:17;9.67;;;7.50;;
69392;SDS011;56582;44.624;20.378;2023-08-31T06:01:43;13.07;;;7.77;;
69392;SDS011;56582;44.624;20.378;2023-08-31T06:04:08;10.30;;;7.20;;
69392;SDS011;56582;44.624;20.378;2023-08-31T06:06:35;10.60;;;7.15;;
69392;SDS011;56582;44.624;20.378;2023-08-31T06:09:00;8.67;;;6.10;;
69392;SDS011;56582;44.624;20.378;2023-08-31T06:11:25;6.75;;;5.18;;
69392;SDS011;56582;44.624;20.378;2023-08-31T06:13:51;7.00;;;5.30;;
69392;SDS011;56582;44.624;20.378;2023-08-31T06:16:19;6.13;;;4.45;;
69392;SDS011;56582;44.624;20.378;2023-08-31T06:18:45;5.27;;;3.63;;
69392;SDS011;56582;44.624;20.378;2023-08-31T06:21:10;5.90;;;4.77;;
69392;SDS011;56582;44.624;20.378;2023-08-31T06:23:36;6.93;;;4.33;;
69392;SDS011;56582;44.624;20.378;2023-08-31T06:26:01;8.57;;;4.80;;
69392;SDS011;56582;44.624;20.378;2023-08-31T06:28:26;8.03;;;6.20;;
69392;SDS011;56582;44.624;20.378;2023-08-31T06:30:52;8.67;;;6.10;;
69392;SDS011;56582;44.624;20.378;2023-08-31T06:33:17;7.33;;;5.80;;
69392;SDS011;56582;44.624;20.378;2023-08-31T06:35:46;7.35;;;5.50;;
69392;SDS011;56582;44.624;20.378;2023-08-31T06:38:17;9.98;;;4.78;;
69392;SDS011;56582;44.624;20.378;2023-08-31T06:40:43;7.82;;;5.22;;
69392;SDS011;56582;44.624;20.378;2023-08-31T06:43:09;7.93;;;5.07;;
69392;SDS011;56582;44.624;20.378;2023-08-31T06:45:35;6.68;;;4.53;;
69392;SDS011;56582;44.624;20.378;2023-08-31T06:48:00;8.27;;;4.80;;
69392;SDS011;56582;44.624;20.378;2023-08-31T06:50:26;6.30;;;4.10;;
69392;SDS011;56582;44.624;20.378;2023-08-31T06:52:54;6.03;;;4.30;;
69392;SDS011;56582;44.624;20.378;2023-08-31T06:55:20;4.40;;;3.00;;
69392;SDS011;56582;44.624;20.378;2023-08-31T06:57:45;4.57;;;2.80;;
69392;SDS011;56582;44.624;20.378;2023-08-31T07:00:11;6.28;;;4.18;;
69392;SDS011;56582;44.624;20.378;2023-08-31T07:02:39;6.90;;;4.03;;
69392;SDS011;56582;44.624;20.378;2023-08-31T07:05:06;6.13;;;4.20;;
69392;SDS011;56582;44.624;20.378;2023-08-31T07:07:31;7.57;;;4.93;;
69392;SDS011;56582;44.624;20.378;2023-08-31T07:09:57;7.60;;;4.73;;
69392;SDS011;56582;44.624;20.378;2023-08-31T07:12:22;8.27;;;5.47;;
69392;SDS011;56582;44.624;20.378;2023-08-31T07:14:48;7.25;;;4.90;;
69392;SDS011;56582;44.624;20.378;2023-08-31T07:17:13;6.97;;;5.13;;
69392;SDS011;56582;44.624;20.378;2023-08-31T07:19:43;8.18;;;5.15;;
69392;SDS011;56582;44.624;20.378;2023-08-31T07:22:08;7.63;;;4.80;;
69392;SDS011;56582;44.624;20.378;2023-08-31T07:24:34;7.90;;;4.55;;
69392;SDS011;56582;44.624;20.378;2023-08-31T07:27:01;7.23;;;5.00;;
69392;SDS011;56582;44.624;20.378;2023-08-31T07:29:27;7.80;;;4.65;;
69392;SDS011;56582;44.624;20.378;2023-08-31T07:31:53;7.27;;;4.40;;
69392;SDS011;56582;44.624;20.378;2023-08-31T07:34:18;7.35;;;4.50;;
69392;SDS011;56582;44.624;20.378;2023-08-31T07:36:44;7.27;;;4.47;;
69392;SDS011;56582;44.624;20.378;2023-08-31T07:39:09;5.70;;;4.47;;
69392;SDS011;56582;44.624;20.378;2023-08-31T07:41:35;7.37;;;4.60;;
69392;SDS011;56582;44.624;20.378;2023-08-31T07:44:00;6.20;;;5.10;;
69392;SDS011;56582;44.624;20.378;2023-08-31T07:46:27;5.70;;;4.00;;
69392;SDS011;56582;44.624;20.378;2023-08-31T07:48:53;6.60;;;4.43;;
69392;SDS011;56582;44.624;20.378;2023-08-31T07:51:18;6.13;;;3.67;;
69392;SDS011;56582;44.624;20.378;2023-08-31T07:53:48;5.60;;;3.93;;
69392;SDS011;56582;44.624;20.378;2023-08-31T07:56:14;6.22;;;4.57;;
69392;SDS011;56582;44.624;20.378;2023-08-31T07:58:39;5.80;;;4.40;;
69392;SDS011;56582;44.624;20.378;2023-08-31T08:01:05;6.23;;;4.20;;
69392;SDS011;56582;44.624;20.378;2023-08-31T08:03:30;5.47;;;4.07;;
69392;SDS011;56582;44.624;20.378;2023-08-31T08:05:56;5.47;;;4.00;;
69392;SDS011;56582;44.624;20.378;2023-08-31T08:08:21;5.47;;;3.78;;
69392;SDS011;56582;44.624;20.378;2023-08-31T08:10:47;6.03;;;3.90;;
69392;SDS011;56582;44.624;20.378;2023-08-31T08:13:16;6.45;;;4.10;;
69392;SDS011;56582;44.624;20.378;2023-08-31T08:15:42;5.43;;;3.83;;
69392;SDS011;56582;44.624;20.378;2023-08-31T08:18:07;5.53;;;4.47;;
69392;SDS011;56582;44.624;20.378;2023-08-31T08:20:33;5.80;;;4.00;;
69392;SDS011;56582;44.624;20.378;2023-08-31T08:22:58;7.03;;;6.03;;
69392;SDS011;56582;44.624;20.378;2023-08-31T08:25:24;6.43;;;4.85;;
69392;SDS011;56582;44.624;20.378;2023-08-31T08:27:50;6.07;;;4.72;;
69392;SDS011;56582;44.624;20.378;2023-08-31T08:30:16;6.63;;;4.20;;
69392;SDS011;56582;44.624;20.378;2023-08-31T08:32:41;7.40;;;5.43;;
69392;SDS011;56582;44.624;20.378;2023-08-31T08:35:07;7.53;;;4.80;;
69392;SDS011;56582;44.624;20.378;2023-08-31T08:37:33;6.40;;;4.45;;
69392;SDS011;56582;44.624;20.378;2023-08-31T08:39:58;7.77;;;5.20;;
69392;SDS011;56582;44.624;20.378;2023-08-31T08:42:24;5.93;;;3.90;;
69392;SDS011;56582;44.624;20.378;2023-08-31T08:44:51;5.80;;;3.85;;
69392;SDS011;56582;44.624;20.378;2023-08-31T08:47:20;6.03;;;3.75;;
69392;SDS011;56582;44.624;20.378;2023-08-31T08:49:47;6.20;;;3.97;;
69392;SDS011;56582;44.624;20.378;2023-08-31T08:52:13;5.40;;;3.50;;
69392;SDS011;56582;44.624;20.378;2023-08-31T08:54:42;6.10;;;3.90;;
69392;SDS011;56582;44.624;20.378;2023-08-31T08:57:09;6.25;;;4.03;;
69392;SDS011;56582;44.624;20.378;2023-08-31T08:59:35;6.38;;;3.58;;
69392;SDS011;56582;44.624;20.378;2023-08-31T09:02:00;6.43;;;3.23;;
69392;SDS011;56582;44.624;20.378;2023-08-31T09:04:25;5.90;;;3.50;;
69392;SDS011;56582;44.624;20.378;2023-08-31T09:06:51;5.63;;;3.70;;
69392;SDS011;56582;44.624;20.378;2023-08-31T09:09:17;7.22;;;3.60;;
69392;SDS011;56582;44.624;20.378;2023-08-31T09:11:42;4.40;;;3.13;;
69392;SDS011;56582;44.624;20.378;2023-08-31T09:14:14;5.03;;;3.40;;
69392;SDS011;56582;44.624;20.378;2023-08-31T09:16:44;5.60;;;4.20;;
69392;SDS011;56582;44.624;20.378;2023-08-31T09:19:18;7.60;;;4.30;;
69392;SDS011;56582;44.624;20.378;2023-08-31T09:21:53;6.10;;;3.60;;
69392;SDS011;56582;44.624;20.378;2023-08-31T09:24:20;6.13;;;4.03;;
69392;SDS011;56582;44.624;20.378;2023-08-31T09:26:48;5.68;;;3.88;;
69392;SDS011;56582;44.624;20.378;2023-08-31T09:29:17;7.85;;;3.80;;
69392;SDS011;56582;44.624;20.378;2023-08-31T09:31:43;6.00;;;4.23;;
69392;SDS011;56582;44.624;20.378;2023-08-31T09:34:09;6.05;;;3.80;;
69392;SDS011;56582;44.624;20.378;2023-08-31T09:36:35;6.77;;;3.93;;
69392;SDS011;56582;44.624;20.378;2023-08-31T09:39:01;6.05;;;3.53;;
69392;SDS011;56582;44.624;20.378;2023-08-31T09:41:27;5.83;;;3.77;;
69392;SDS011;56582;44.624;20.378;2023-08-31T09:43:52;7.85;;;4.18;;
69392;SDS011;56582;44.624;20.378;2023-08-31T09:46:18;6.10;;;3.97;;
69392;SDS011;56582;44.624;20.378;2023-08-31T09:48:45;5.65;;;3.80;;
69392;SDS011;56582;44.624;20.378;2023-08-31T09:51:11;5.07;;;3.20;;
69392;SDS011;56582;44.624;20.378;2023-08-31T09:53:41;4.70;;;3.42;;
69392;SDS011;56582;44.624;20.378;2023-08-31T09:56:08;6.53;;;3.50;;
69392;SDS011;56582;44.624;20.378;2023-08-31T09:58:38;6.78;;;3.42;;
69392;SDS011;56582;44.624;20.378;2023-08-31T10:01:04;4.77;;;3.50;;
69392;SDS011;56582;44.624;20.378;2023-08-31T10:03:30;4.40;;;3.28;;
69392;SDS011;56582;44.624;20.378;2023-08-31T10:05:56;5.15;;;3.50;;
69392;SDS011;56582;44.624;20.378;2023-08-31T10:08:24;5.13;;;2.92;;
69392;SDS011;56582;44.624;20.378;2023-08-31T10:10:51;6.03;;;3.45;;
69392;SDS011;56582;44.624;20.378;2023-08-31T10:13:18;4.80;;;3.53;;
69392;SDS011;56582;44.624;20.378;2023-08-31T10:15:46;7.35;;;3.05;;
69392;SDS011;56582;44.624;20.378;2023-08-31T10:18:14;6.00;;;3.38;;
69392;SDS011;56582;44.624;20.378;2023-08-31T10:20:41;6.30;;;3.70;;
69392;SDS011;56582;44.624;20.378;2023-08-31T10:23:08;6.53;;;3.28;;
69392;SDS011;56582;44.624;20.378;2023-08-31T10:28:21;5.30;;;3.30;;
69392;SDS011;56582;44.624;20.378;2023-08-31T10:31:04;9.50;;;3.60;;
69392;SDS011;56582;44.624;20.378;2023-08-31T10:36:15;6.78;;;4.32;;
69392;SDS011;56582;44.624;20.378;2023-08-31T10:38:44;10.63;;;4.60;;
69392;SDS011;56582;44.624;20.378;2023-08-31T10:43:46;7.70;;;5.13;;
69392;SDS011;56582;44.624;20.378;2023-08-31T10:46:20;7.63;;;4.90;;
69392;SDS011;56582;44.624;20.378;2023-08-31T10:49:00;5.33;;;3.70;;
69392;SDS011;56582;44.624;20.378;2023-08-31T10:51:35;5.90;;;3.60;;
69392;SDS011;56582;44.624;20.378;2023-08-31T10:56:51;5.50;;;4.53;;
69392;SDS011;56582;44.624;20.378;2023-08-31T10:59:19;6.78;;;4.10;;
69392;SDS011;56582;44.624;20.378;2023-08-31T11:04:23;5.25;;;3.85;;
69392;SDS011;56582;44.624;20.378;2023-08-31T11:09:42;7.45;;;3.92;;
69392;SDS011;56582;44.624;20.378;2023-08-31T11:12:08;6.55;;;3.90;;
69392;SDS011;56582;44.624;20.378;2023-08-31T11:14:35;8.40;;;4.00;;
69392;SDS011;56582;44.624;20.378;2023-08-31T11:17:01;5.97;;;3.92;;
69392;SDS011;56582;44.624;20.378;2023-08-31T11:19:29;5.95;;;4.10;;
69392;SDS011;56582;44.624;20.378;2023-08-31T11:21:55;6.90;;;4.73;;
69392;SDS011;56582;44.624;20.378;2023-08-31T11:24:20;8.32;;;5.95;;
69392;SDS011;56582;44.624;20.378;2023-08-31T11:26:49;7.27;;;4.30;;
69392;SDS011;56582;44.624;20.378;2023-08-31T11:29:15;6.85;;;4.82;;
69392;SDS011;56582;44.624;20.378;2023-08-31T11:31:41;8.88;;;6.35;;
69392;SDS011;56582;44.624;20.378;2023-08-31T11:34:07;8.00;;;6.30;;
69392;SDS011;56582;44.624;20.378;2023-08-31T11:36:37;9.18;;;6.45;;
69392;SDS011;56582;44.624;20.378;2023-08-31T11:39:03;8.10;;;6.80;;
69392;SDS011;56582;44.624;20.378;2023-08-31T11:41:35;7.50;;;5.73;;
69392;SDS011;56582;44.624;20.378;2023-08-31T11:44:02;9.10;;;6.68;;
69392;SDS011;56582;44.624;20.378;2023-08-31T11:46:29;8.32;;;6.30;;
69392;SDS011;56582;44.624;20.378;2023-08-31T11:48:55;9.68;;;6.10;;
69392;SDS011;56582;44.624;20.378;2023-08-31T11:51:20;8.77;;;6.70;;
69392;SDS011;56582;44.624;20.378;2023-08-31T11:53:46;7.72;;;6.05;;
69392;SDS011;56582;44.624;20.378;2023-08-31T11:56:12;8.37;;;5.30;;
69392;SDS011;56582;44.624;20.378;2023-08-31T11:58:44;7.72;;;5.35;;
69392;SDS011;56582;44.624;20.378;2023-08-31T12:01:11;6.83;;;5.30;;
69392;SDS011;56582;44.624;20.378;2023-08-31T12:03:44;8.52;;;5.80;;
69392;SDS011;56582;44.624;20.378;2023-08-31T12:06:10;7.50;;;5.57;;
69392;SDS011;56582;44.624;20.378;2023-08-31T12:08:36;6.53;;;5.80;;
69392;SDS011;56582;44.624;20.378;2023-08-31T12:11:02;7.00;;;5.80;;
69392;SDS011;56582;44.624;20.378;2023-08-31T12:13:27;7.53;;;5.03;;
69392;SDS011;56582;44.624;20.378;2023-08-31T12:15:57;8.33;;;5.70;;
69392;SDS011;56582;44.624;20.378;2023-08-31T12:18:22;8.65;;;5.57;;
69392;SDS011;56582;44.624;20.378;2023-08-31T12:20:51;6.30;;;5.25;;
69392;SDS011;56582;44.624;20.378;2023-08-31T12:23:17;9.03;;;5.57;;
69392;SDS011;56582;44.624;20.378;2023-08-31T12:25:49;11.10;;;7.65;;
69392;SDS011;56582;44.624;20.378;2023-08-31T12:28:16;11.02;;;8.85;;
69392;SDS011;56582;44.624;20.378;2023-08-31T12:30:45;10.80;;;8.45;;
69392;SDS011;56582;44.624;20.378;2023-08-31T12:33:12;10.35;;;8.10;;
69392;SDS011;56582;44.624;20.378;2023-08-31T12:35:38;8.20;;;6.40;;
69392;SDS011;56582;44.624;20.378;2023-08-31T12:38:04;9.20;;;5.85;;
69392;SDS011;56582;44.624;20.378;2023-08-31T12:40:29;8.90;;;5.50;;
69392;SDS011;56582;44.624;20.378;2023-08-31T12:42:54;8.03;;;6.40;;
69392;SDS011;56582;44.624;20.378;2023-08-31T12:45:20;10.00;;;6.17;;
69392;SDS011;56582;44.624;20.378;2023-08-31T12:47:45;7.43;;;6.05;;
69392;SDS011;56582;44.624;20.378;2023-08-31T12:50:12;11.87;;;6.93;;
69392;SDS011;56582;44.624;20.378;2023-08-31T12:52:38;8.43;;;6.25;;
69392;SDS011;56582;44.624;20.378;2023-08-31T12:55:09;8.75;;;6.80;;
69392;SDS011;56582;44.624;20.378;2023-08-31T12:57:35;6.95;;;5.93;;
69392;SDS011;56582;44.624;20.378;2023-08-31T13:00:01;8.57;;;6.70;;
69392;SDS011;56582;44.624;20.378;2023-08-31T13:02:29;7.80;;;5.88;;
69392;SDS011;56582;44.624;20.378;2023-08-31T13:04:55;7.80;;;5.80;;
69392;SDS011;56582;44.624;20.378;2023-08-31T13:07:20;7.00;;;5.70;;
69392;SDS011;56582;44.624;20.378;2023-08-31T13:09:46;7.63;;;5.18;;
69392;SDS011;56582;44.624;20.378;2023-08-31T13:12:11;6.73;;;4.53;;
69392;SDS011;56582;44.624;20.378;2023-08-31T13:14:37;7.27;;;5.53;;
69392;SDS011;56582;44.624;20.378;2023-08-31T13:17:04;8.43;;;5.65;;
69392;SDS011;56582;44.624;20.378;2023-08-31T13:19:30;6.20;;;5.10;;
69392;SDS011;56582;44.624;20.378;2023-08-31T13:21:55;7.03;;;5.20;;
69392;SDS011;56582;44.624;20.378;2023-08-31T13:24:21;6.40;;;4.83;;
69392;SDS011;56582;44.624;20.378;2023-08-31T13:26:46;7.18;;;5.05;;
69392;SDS011;56582;44.624;20.378;2023-08-31T13:29:13;7.20;;;5.03;;
69392;SDS011;56582;44.624;20.378;2023-08-31T13:31:39;6.25;;;4.72;;
69392;SDS011;56582;44.624;20.378;2023-08-31T13:34:04;6.63;;;4.67;;
69392;SDS011;56582;44.624;20.378;2023-08-31T13:36:32;6.07;;;4.47;;
69392;SDS011;56582;44.624;20.378;2023-08-31T13:38:59;7.07;;;3.90;;
69392;SDS011;56582;44.624;20.378;2023-08-31T13:41:24;5.43;;;3.90;;
69392;SDS011;56582;44.624;20.378;2023-08-31T13:43:50;5.07;;;3.85;;
69392;SDS011;56582;44.624;20.378;2023-08-31T13:46:16;5.93;;;4.30;;
69392;SDS011;56582;44.624;20.378;2023-08-31T13:48:42;6.63;;;3.72;;
69392;SDS011;56582;44.624;20.378;2023-08-31T13:51:07;6.10;;;4.37;;
69392;SDS011;56582;44.624;20.378;2023-08-31T13:53:33;5.43;;;3.80;;
69392;SDS011;56582;44.624;20.378;2023-08-31T13:55:59;5.85;;;4.10;;
69392;SDS011;56582;44.624;20.378;2023-08-31T13:58:24;6.10;;;4.37;;
69392;SDS011;56582;44.624;20.378;2023-08-31T14:00:50;6.30;;;4.13;;
69392;SDS011;56582;44.624;20.378;2023-08-31T14:03:15;5.38;;;3.67;;
69392;SDS011;56582;44.624;20.378;2023-08-31T14:05:42;5.87;;;4.43;;
69392;SDS011;56582;44.624;20.378;2023-08-31T14:08:07;6.32;;;4.60;;
69392;SDS011;56582;44.624;20.378;2023-08-31T14:10:33;5.57;;;3.63;;
69392;SDS011;56582;44.624;20.378;2023-08-31T14:12:59;8.35;;;4.20;;
69392;SDS011;56582;44.624;20.378;2023-08-31T14:15:25;6.47;;;4.17;;
69392;SDS011;56582;44.624;20.378;2023-08-31T14:17:51;7.47;;;3.63;;
69392;SDS011;56582;44.624;20.378;2023-08-31T14:20:18;5.85;;;3.40;;
69392;SDS011;56582;44.624;20.378;2023-08-31T14:22:44;5.97;;;3.83;;
69392;SDS011;56582;44.624;20.378;2023-08-31T14:25:14;5.65;;;3.83;;
69392;SDS011;56582;44.624;20.378;2023-08-31T14:27:40;5.00;;;3.43;;
69392;SDS011;56582;44.624;20.378;2023-08-31T14:30:05;5.30;;;3.70;;
69392;SDS011;56582;44.624;20.378;2023-08-31T14:32:31;5.45;;;3.65;;
69392;SDS011;56582;44.624;20.378;2023-08-31T14:34:57;5.30;;;3.43;;
69392;SDS011;56582;44.624;20.378;2023-08-31T14:37:23;12.18;;;3.58;;
69392;SDS011;56582;44.624;20.378;2023-08-31T14:39:48;5.17;;;3.30;;
69392;SDS011;56582;44.624;20.378;2023-08-31T14:42:14;5.70;;;3.38;;
69392;SDS011;56582;44.624;20.378;2023-08-31T14:44:45;4.50;;;3.17;;
69392;SDS011;56582;44.624;20.378;2023-08-31T14:47:11;4.97;;;3.15;;
69392;SDS011;56582;44.624;20.378;2023-08-31T14:49:38;5.30;;;3.17;;
69392;SDS011;56582;44.624;20.378;2023-08-31T14:52:05;5.05;;;3.10;;
69392;SDS011;56582;44.624;20.378;2023-08-31T14:54:31;6.00;;;3.63;;